CheckWX is a tool to help pilots better visualize weather data.  It is not intended as a substitute for an official pre-flight weather briefing.

17:30:21 UTC

KSTS TAF
Charles M Schulz - Sonoma County Airport
Santa Rosa, California, USA
KSTS 241125Z 2412/2512 VRB04KT P6SM SCT250 TEMPO 2412/2416 5SM BR SCT004 FM241600 30004KT P6SM FEW008 BKN250 FM241800 17009KT P6SM FEW030 BKN200 FM250300 15004KT P6SM SCT040 BKN100 FM250900 13006KT P6SM -RA SCT015 BKN035 OVC050

Mar-24@
12:00 UTC

Mar-24 @ 12:00 UTC

Mar-24@
16:00 UTC

Mar-24 @ 16:00 UTC

KSTS 241125Z 2412/2512 VRB04KT P6SM SCT250

Expired

Wind
  • Variable at 4 KTS
Cloud Levels
  • Scattered at 25,000' AGL

Mar-24@
12:00 UTC

Mar-24 @ 12:00 UTC

Mar-24@
16:00 UTC

Mar-24 @ 16:00 UTC

TEMPO 2412/2416 5SM BR SCT004

Expired

Conditions
Mist
Cloud Levels
  • Scattered at 400' AGL

Mar-24@
16:00 UTC

Mar-24 @ 16:00 UTC

Mar-24@
18:00 UTC

Mar-24 @ 18:00 UTC

FM241600 30004KT P6SM FEW008 BKN250

From

From Standard forecast or significant change

Wind
  • 300° at 4 KTS
Cloud Levels
  • Few at 800' AGL
  • Broken at 25,000' AGL

Mar-24@
18:00 UTC

Mar-24 @ 18:00 UTC

Mar-25@
03:00 UTC

Mar-25 @ 03:00 UTC

FM241800 17009KT P6SM FEW030 BKN200

From

From Standard forecast or significant change

Wind
  • 170° at 9 KTS
Cloud Levels
  • Few at 3,000' AGL
  • Broken at 20,000' AGL

Mar-25@
03:00 UTC

Mar-25 @ 03:00 UTC

Mar-25@
09:00 UTC

Mar-25 @ 09:00 UTC

FM250300 15004KT P6SM SCT040 BKN100

From

From Standard forecast or significant change

Wind
  • 150° at 4 KTS
Cloud Levels
  • Scattered at 4,000' AGL
  • Broken at 10,000' AGL

Mar-25@
09:00 UTC

Mar-25 @ 09:00 UTC

Mar-25@
12:00 UTC

Mar-25 @ 12:00 UTC

FM250900 13006KT P6SM -RA SCT015 BKN035 OVC050

From

From Standard forecast or significant change

Wind
  • 130° at 6 KTS
Conditions
Light Rain
Cloud Levels
  • Scattered at 1,500' AGL
  • Broken at 3,500' AGL
  • Overcast at 5,000' AGL